createdAt,value
2022-10-22T00:01:01.467Z,7.30
2022-10-22T00:03:27.954Z,8.20
2022-10-22T00:05:54.410Z,6.15
2022-10-22T00:08:21.454Z,5.45
2022-10-22T00:10:48.030Z,7.10
2022-10-22T00:13:14.582Z,6.35
2022-10-22T00:15:41.205Z,7.43
2022-10-22T00:18:07.694Z,6.10
2022-10-22T00:20:34.236Z,6.00
2022-10-22T00:23:00.776Z,5.65
2022-10-22T00:25:27.238Z,6.35
2022-10-22T00:27:53.816Z,5.45
2022-10-22T00:30:20.283Z,6.78
2022-10-22T00:32:46.742Z,5.03
2022-10-22T00:35:13.502Z,7.40
2022-10-22T00:37:40.000Z,6.47
2022-10-22T00:40:07.057Z,5.72
2022-10-22T00:42:33.566Z,7.93
2022-10-22T00:45:27.352Z,5.53
2022-10-22T00:48:21.987Z,6.53
2022-10-22T00:50:57.789Z,5.80
2022-10-22T00:53:33.191Z,5.45
2022-10-22T00:56:00.167Z,6.32
2022-10-22T00:58:31.132Z,4.72
2022-10-22T01:00:58.159Z,5.85
2022-10-22T01:03:25.049Z,8.95
2022-10-22T01:06:00.656Z,5.28
2022-10-22T01:08:39.823Z,5.47
2022-10-22T01:11:44.811Z,5.50
2022-10-22T01:14:33.597Z,5.38
2022-10-22T01:17:03.064Z,5.95
2022-10-22T01:19:58.450Z,5.97
2022-10-22T01:22:31.632Z,5.43
2022-10-22T01:25:16.384Z,6.32
2022-10-22T01:27:58.416Z,4.70
2022-10-22T01:30:26.054Z,4.65
2022-10-22T01:32:56.884Z,6.43
2022-10-22T01:35:28.829Z,7.05
2022-10-22T01:38:01.903Z,4.22
2022-10-22T01:40:29.457Z,4.05
2022-10-22T01:43:01.363Z,7.35
2022-10-22T01:45:33.020Z,4.82
2022-10-22T01:48:38.557Z,7.10
2022-10-22T01:51:49.124Z,4.22
2022-10-22T01:54:36.208Z,5.78
2022-10-22T01:57:28.283Z,4.93
2022-10-22T02:00:08.311Z,5.88
2022-10-22T02:03:02.192Z,4.53
2022-10-22T02:05:33.814Z,4.35
2022-10-22T02:08:05.560Z,4.00
2022-10-22T02:10:32.508Z,3.72
2022-10-22T02:13:01.139Z,6.90
2022-10-22T02:15:30.668Z,6.47
2022-10-22T02:18:00.860Z,5.18
2022-10-22T02:20:35.188Z,7.85
2022-10-22T02:23:02.244Z,3.30
2022-10-22T02:25:32.494Z,4.13
2022-10-22T02:28:08.757Z,4.45
2022-10-22T02:30:38.665Z,4.95
2022-10-22T02:33:14.540Z,4.18
2022-10-22T02:35:41.867Z,5.30
2022-10-22T02:38:09.522Z,5.43
2022-10-22T02:40:36.292Z,4.50
2022-10-22T02:43:05.655Z,3.67
2022-10-22T02:45:32.240Z,7.45
2022-10-22T02:47:58.942Z,4.82
2022-10-22T02:50:25.431Z,5.75
2022-10-22T02:52:51.890Z,6.72
2022-10-22T02:55:18.457Z,3.75
2022-10-22T02:57:44.957Z,5.82
2022-10-22T03:00:12.191Z,5.55
2022-10-22T03:02:38.670Z,4.40
2022-10-22T03:05:05.943Z,3.92
2022-10-22T03:07:32.712Z,6.07
2022-10-22T03:09:59.212Z,3.75
2022-10-22T03:12:25.720Z,4.00
2022-10-22T03:14:52.227Z,3.33
2022-10-22T03:17:18.750Z,3.70
2022-10-22T03:19:45.198Z,4.30
2022-10-22T03:22:17.578Z,2.65
2022-10-22T03:24:46.273Z,3.72
2022-10-22T03:27:16.517Z,3.90
2022-10-22T03:29:43.393Z,4.68
2022-10-22T03:32:09.926Z,4.28
2022-10-22T03:34:36.371Z,5.32
2022-10-22T03:37:02.871Z,3.70
2022-10-22T03:39:33.227Z,3.42
2022-10-22T03:42:00.029Z,3.38
2022-10-22T03:44:27.487Z,4.13
2022-10-22T03:46:57.486Z,3.60
2022-10-22T03:49:26.644Z,5.23
2022-10-22T03:51:53.091Z,5.43
2022-10-22T03:54:19.629Z,4.05
2022-10-22T03:56:46.067Z,4.88
2022-10-22T03:59:13.196Z,3.72
2022-10-22T04:01:39.709Z,3.58
2022-10-22T04:04:06.168Z,2.45
2022-10-22T04:06:32.653Z,3.08
2022-10-22T04:08:59.257Z,3.47
2022-10-22T04:11:25.751Z,4.43
2022-10-22T04:13:52.225Z,3.25
2022-10-22T04:16:21.367Z,4.82
2022-10-22T04:18:49.059Z,3.33
2022-10-22T04:21:17.971Z,3.75
2022-10-22T04:23:48.755Z,3.33
2022-10-22T04:26:15.863Z,3.47
2022-10-22T04:28:42.656Z,3.55
2022-10-22T04:31:15.839Z,4.10
2022-10-22T04:33:42.981Z,4.00
2022-10-22T04:36:14.936Z,4.68
2022-10-22T04:38:42.895Z,5.85
2022-10-22T04:41:12.119Z,3.85
2022-10-22T04:43:39.267Z,3.63
2022-10-22T04:46:06.704Z,4.05
2022-10-22T04:48:33.149Z,3.40
2022-10-22T04:51:00.711Z,5.38
2022-10-22T04:53:27.746Z,3.60
2022-10-22T04:55:54.528Z,3.20
2022-10-22T04:58:21.077Z,2.75
2022-10-22T05:00:47.622Z,4.47
2022-10-22T05:03:14.109Z,3.83
2022-10-22T05:05:40.546Z,4.55
2022-10-22T05:08:07.051Z,2.47
2022-10-22T05:10:33.554Z,3.00
2022-10-22T05:13:00.059Z,5.43
2022-10-22T05:15:26.740Z,3.28
2022-10-22T05:17:53.173Z,2.75
2022-10-22T05:20:19.616Z,4.40
2022-10-22T05:22:46.100Z,4.63
2022-10-22T05:25:12.554Z,2.85
2022-10-22T05:27:39.381Z,3.05
2022-10-22T05:30:06.805Z,2.28
2022-10-22T05:32:35.311Z,4.43
2022-10-22T05:35:01.785Z,2.65
2022-10-22T05:37:28.252Z,3.72
2022-10-22T05:40:01.873Z,3.65
2022-10-22T05:42:39.428Z,5.15
2022-10-22T05:45:06.683Z,4.90
2022-10-22T05:47:33.146Z,5.22
2022-10-22T05:49:59.683Z,2.35
2022-10-22T05:52:26.648Z,4.28
2022-10-22T05:54:53.278Z,3.03
2022-10-22T05:57:19.804Z,4.50
2022-10-22T05:59:46.497Z,5.57
2022-10-22T06:02:13.096Z,3.38
2022-10-22T06:04:39.647Z,3.05
2022-10-22T06:07:06.165Z,2.75
2022-10-22T06:12:04.073Z,4.28
2022-10-22T06:14:32.617Z,4.00
2022-10-22T06:16:59.787Z,2.13
2022-10-22T06:19:27.056Z,3.28
2022-10-22T06:21:53.607Z,4.13
2022-10-22T06:24:20.094Z,3.53
2022-10-22T06:26:50.399Z,2.63
2022-10-22T06:29:17.188Z,4.72
2022-10-22T06:31:43.735Z,6.00
2022-10-22T06:34:15.071Z,3.65
2022-10-22T06:36:42.817Z,3.83
2022-10-22T06:39:12.216Z,2.17
2022-10-22T06:41:38.802Z,4.30
2022-10-22T06:44:05.373Z,2.75
2022-10-22T06:46:32.198Z,3.40
2022-10-22T06:49:01.233Z,1.95
2022-10-22T06:51:28.172Z,2.60
2022-10-22T06:53:56.214Z,3.78
2022-10-22T06:56:25.007Z,2.88
2022-10-22T06:58:53.202Z,3.00
2022-10-22T07:01:22.424Z,4.03
2022-10-22T07:03:51.490Z,2.40
2022-10-22T07:06:18.530Z,3.25
2022-10-22T07:08:45.027Z,5.85
2022-10-22T07:11:23.249Z,2.85
2022-10-22T07:13:50.788Z,3.50
2022-10-22T07:16:18.347Z,2.35
2022-10-22T07:18:46.056Z,6.35
2022-10-22T07:21:13.692Z,3.75
2022-10-22T07:23:40.369Z,1.98
2022-10-22T07:26:08.530Z,3.83
2022-10-22T07:28:37.988Z,3.78
2022-10-22T07:31:04.684Z,3.42
2022-10-22T07:33:31.216Z,4.90
2022-10-22T07:36:02.755Z,2.75
2022-10-22T07:38:29.509Z,3.95
2022-10-22T07:40:56.088Z,3.60
2022-10-22T07:43:22.572Z,3.25
2022-10-22T07:45:49.110Z,3.78
2022-10-22T07:48:15.952Z,4.97
2022-10-22T07:53:13.896Z,3.15
2022-10-22T07:55:40.376Z,2.40
2022-10-22T07:58:06.908Z,2.83
2022-10-22T08:00:33.602Z,4.85
2022-10-22T08:03:00.253Z,4.43
2022-10-22T08:05:26.787Z,6.18
2022-10-22T08:07:53.261Z,3.25
2022-10-22T08:10:19.805Z,3.50
2022-10-22T08:12:46.274Z,5.65
2022-10-22T08:15:12.741Z,3.08
2022-10-22T08:17:39.565Z,5.45
2022-10-22T08:20:07.006Z,2.75
2022-10-22T08:22:33.518Z,2.22
2022-10-22T08:25:00.520Z,3.97
2022-10-22T08:27:27.158Z,4.00
2022-10-22T08:29:53.617Z,5.63
2022-10-22T08:32:20.141Z,5.15
2022-10-22T08:34:46.651Z,2.30
2022-10-22T08:37:14.361Z,3.83
2022-10-22T08:39:41.369Z,2.92
2022-10-22T08:42:35.812Z,4.93
2022-10-22T08:45:29.689Z,4.10
2022-10-22T08:48:14.468Z,5.70
2022-10-22T08:50:47.632Z,4.15
2022-10-22T08:53:23.732Z,5.57
2022-10-22T08:55:53.448Z,8.27
2022-10-22T08:58:32.023Z,4.38
2022-10-22T09:01:02.628Z,5.78
2022-10-22T09:03:56.359Z,6.05
2022-10-22T09:06:28.184Z,4.28
2022-10-22T09:08:57.452Z,6.43
2022-10-22T09:11:39.978Z,6.93
2022-10-22T09:14:09.392Z,4.88
2022-10-22T09:16:52.067Z,4.13
2022-10-22T09:19:30.703Z,4.35
2022-10-22T09:22:06.134Z,4.15
2022-10-22T09:24:44.065Z,5.72
2022-10-22T09:27:25.835Z,3.65
2022-10-22T09:29:52.331Z,4.63
2022-10-22T09:32:19.003Z,6.65
2022-10-22T09:34:47.104Z,4.32
2022-10-22T09:37:17.805Z,3.97
2022-10-22T09:39:46.214Z,3.22
2022-10-22T09:42:16.521Z,7.15
2022-10-22T09:44:47.789Z,4.38
2022-10-22T09:47:42.749Z,5.60
2022-10-22T09:50:22.017Z,4.65
2022-10-22T09:52:59.030Z,5.93
2022-10-22T09:55:26.542Z,2.92
2022-10-22T09:57:59.360Z,4.05
2022-10-22T10:00:27.551Z,2.90
2022-10-22T10:02:58.903Z,6.13
2022-10-22T10:05:35.533Z,4.82
2022-10-22T10:08:13.270Z,2.78
2022-10-22T10:10:52.520Z,2.90
2022-10-22T10:13:49.700Z,4.55
2022-10-22T10:16:46.205Z,4.55
2022-10-22T10:19:43.837Z,5.03
2022-10-22T10:22:32.209Z,4.45
2022-10-22T10:25:26.557Z,5.43
2022-10-22T10:28:16.425Z,4.28
2022-10-22T10:30:58.402Z,6.07
2022-10-22T10:33:51.169Z,5.07
2022-10-22T10:36:44.160Z,5.95
2022-10-22T10:39:24.168Z,3.97
2022-10-22T10:42:03.533Z,4.05
2022-10-22T10:44:35.779Z,3.33
2022-10-22T10:47:49.629Z,3.78
2022-10-22T10:50:29.094Z,7.40
2022-10-22T10:53:27.504Z,5.38
2022-10-22T10:56:07.735Z,7.45
2022-10-22T10:58:57.669Z,6.60
2022-10-22T11:01:42.673Z,10.68
2022-10-22T11:04:09.163Z,7.20
2022-10-22T11:06:39.185Z,6.95
2022-10-22T11:09:14.540Z,4.85
2022-10-22T11:11:47.929Z,8.45
2022-10-22T11:14:24.240Z,4.47
2022-10-22T11:17:05.309Z,5.35
2022-10-22T11:19:52.325Z,7.97
2022-10-22T11:22:27.057Z,8.05
2022-10-22T11:25:05.068Z,8.55
2022-10-22T11:27:53.544Z,6.68
2022-10-22T11:30:26.246Z,8.15
2022-10-22T11:33:01.708Z,6.28
2022-10-22T11:35:38.093Z,6.20
2022-10-22T11:38:07.124Z,7.75
2022-10-22T11:40:38.129Z,4.75
2022-10-22T11:43:25.630Z,6.30
2022-10-22T11:46:00.842Z,6.50
2022-10-22T11:48:28.880Z,8.20
2022-10-22T11:51:00.070Z,7.93
2022-10-22T11:53:35.857Z,5.78
2022-10-22T11:56:09.869Z,5.20
2022-10-22T11:58:50.699Z,6.03
2022-10-22T12:03:53.048Z,11.63
2022-10-22T12:06:48.958Z,13.75
2022-10-22T12:09:18.834Z,9.05
2022-10-22T12:11:49.277Z,6.25
2022-10-22T12:14:33.563Z,8.35
2022-10-22T12:17:03.563Z,12.63
2022-10-22T12:19:47.090Z,11.13
2022-10-22T12:22:21.833Z,28.98
2022-10-22T12:24:51.779Z,71.70
2022-10-22T12:27:24.219Z,50.10
2022-10-22T12:29:57.046Z,27.65
2022-10-22T12:32:24.627Z,31.88
2022-10-22T12:34:52.805Z,31.38
2022-10-22T12:37:19.634Z,21.58
2022-10-22T12:39:46.729Z,30.20
2022-10-22T12:42:16.263Z,30.15
2022-10-22T12:44:46.188Z,25.27
2022-10-22T12:47:16.999Z,19.02
2022-10-22T12:49:47.640Z,16.00
2022-10-22T12:52:18.032Z,23.88
2022-10-22T12:54:50.357Z,27.33
2022-10-22T12:57:20.131Z,19.55
2022-10-22T12:59:51.544Z,16.42
2022-10-22T13:02:24.667Z,18.13
2022-10-22T13:05:24.888Z,24.35
2022-10-22T13:07:54.660Z,48.00
2022-10-22T13:10:27.693Z,26.42
2022-10-22T13:12:56.755Z,32.88
2022-10-22T13:15:34.586Z,32.15
2022-10-22T13:18:19.418Z,20.88
2022-10-22T13:21:01.791Z,26.17
2022-10-22T13:23:30.151Z,17.90
2022-10-22T13:26:00.409Z,28.73
2022-10-22T13:28:28.457Z,10.75
2022-10-22T13:31:00.947Z,14.02
2022-10-22T13:33:32.651Z,22.60
2022-10-22T13:35:59.179Z,14.30
2022-10-22T13:38:27.483Z,24.40
2022-10-22T13:40:55.174Z,44.88
2022-10-22T13:43:21.908Z,100.18
2022-10-22T13:45:54.072Z,101.28
2022-10-22T13:48:23.444Z,56.95
2022-10-22T13:50:50.918Z,46.78
2022-10-22T13:53:26.571Z,33.58
2022-10-22T13:55:53.464Z,25.20
2022-10-22T13:58:23.861Z,22.38
2022-10-22T14:00:55.718Z,23.23
2022-10-22T14:03:26.848Z,19.55
2022-10-22T14:05:53.338Z,17.08
2022-10-22T14:08:22.174Z,16.15
2022-10-22T14:10:48.732Z,23.52
2022-10-22T14:13:17.350Z,15.63
2022-10-22T14:15:46.354Z,16.13
2022-10-22T14:18:24.241Z,19.33
2022-10-22T14:20:53.747Z,12.18
2022-10-22T14:23:22.689Z,13.23
2022-10-22T14:25:52.461Z,13.43
2022-10-22T14:28:19.595Z,17.10
2022-10-22T14:30:47.217Z,14.35
2022-10-22T14:33:28.764Z,11.70
2022-10-22T14:35:58.500Z,13.35
2022-10-22T14:38:25.015Z,14.27
2022-10-22T14:40:51.865Z,17.23
2022-10-22T14:43:27.123Z,8.30
2022-10-22T14:45:54.440Z,9.85
2022-10-22T14:48:21.156Z,12.43
2022-10-22T14:50:48.151Z,12.15
2022-10-22T14:53:16.617Z,8.80
2022-10-22T14:55:44.710Z,15.30
2022-10-22T14:58:12.349Z,9.57
2022-10-22T15:00:41.891Z,8.52
2022-10-22T15:03:09.142Z,10.93
2022-10-22T15:05:36.407Z,13.70
2022-10-22T15:08:02.939Z,10.25
2022-10-22T15:10:29.384Z,10.00
2022-10-22T15:12:55.953Z,8.00
2022-10-22T15:15:23.219Z,10.82
2022-10-22T15:17:51.127Z,8.25
2022-10-22T15:20:17.625Z,8.57
2022-10-22T15:22:45.280Z,8.52
2022-10-22T15:25:13.018Z,6.50
2022-10-22T15:27:39.623Z,7.70
2022-10-22T15:30:07.520Z,9.68
2022-10-22T15:32:34.230Z,11.00
2022-10-22T15:35:01.502Z,7.25
2022-10-22T15:37:27.988Z,6.75
2022-10-22T15:39:54.563Z,5.18
2022-10-22T15:42:21.035Z,9.77
2022-10-22T15:44:47.597Z,9.68
2022-10-22T15:47:14.116Z,8.77
2022-10-22T15:49:41.812Z,6.20
2022-10-22T15:52:09.107Z,6.65
2022-10-22T15:54:35.792Z,7.18
2022-10-22T15:57:03.852Z,7.20
2022-10-22T15:59:30.573Z,5.70
2022-10-22T16:01:57.049Z,5.82
2022-10-22T16:04:23.578Z,9.40
2022-10-22T16:06:55.368Z,5.15
2022-10-22T16:09:24.471Z,8.80
2022-10-22T16:14:21.449Z,10.35
2022-10-22T16:16:50.086Z,10.60
2022-10-22T16:19:18.262Z,11.23
2022-10-22T16:21:44.971Z,13.73
2022-10-22T16:24:12.451Z,10.52
2022-10-22T16:26:38.982Z,10.90
2022-10-22T16:29:05.691Z,18.83
2022-10-22T16:31:32.228Z,11.73
2022-10-22T16:33:58.731Z,16.48
2022-10-22T16:36:25.525Z,13.05
2022-10-22T16:38:52.024Z,14.05
2022-10-22T16:41:20.798Z,14.50
2022-10-22T16:43:49.083Z,15.55
2022-10-22T16:46:16.644Z,14.32
2022-10-22T16:48:47.216Z,13.88
2022-10-22T16:51:16.748Z,15.00
2022-10-22T16:53:43.743Z,17.15
2022-10-22T16:56:11.857Z,17.48
2022-10-22T16:58:39.270Z,17.27
2022-10-22T17:01:07.885Z,18.35
2022-10-22T17:03:35.285Z,18.48
2022-10-22T17:06:04.010Z,20.10
2022-10-22T17:08:31.745Z,14.45
2022-10-22T17:10:58.333Z,16.45
2022-10-22T17:13:24.952Z,21.05
2022-10-22T17:15:51.412Z,19.20
2022-10-22T17:18:17.910Z,21.67
2022-10-22T17:20:44.384Z,45.50
2022-10-22T17:23:10.876Z,56.60
2022-10-22T17:25:46.136Z,62.15
2022-10-22T17:28:12.713Z,64.15
2022-10-22T17:30:40.730Z,63.58
2022-10-22T17:33:08.399Z,73.05
2022-10-22T17:35:39.601Z,71.43
2022-10-22T17:38:07.643Z,69.03
2022-10-22T17:40:39.058Z,71.82
2022-10-22T17:43:05.540Z,70.80
2022-10-22T17:45:32.111Z,69.55
2022-10-22T17:47:58.590Z,72.95
2022-10-22T17:50:25.070Z,65.88
2022-10-22T17:52:51.565Z,65.40
2022-10-22T17:55:18.061Z,69.03
2022-10-22T17:57:44.514Z,63.22
2022-10-22T18:00:13.717Z,66.60
2022-10-22T18:02:42.493Z,66.18
2022-10-22T18:05:09.528Z,67.22
2022-10-22T18:07:36.015Z,62.60
2022-10-22T18:10:02.526Z,58.58
2022-10-22T18:12:29.016Z,59.08
2022-10-22T18:14:55.699Z,61.75
2022-10-22T18:17:22.254Z,57.28
2022-10-22T18:19:49.403Z,51.60
2022-10-22T18:22:15.902Z,57.55
2022-10-22T18:24:42.367Z,52.33
2022-10-22T18:27:08.956Z,57.72
2022-10-22T18:29:35.505Z,53.85
2022-10-22T18:32:03.743Z,52.20
2022-10-22T18:34:30.929Z,51.50
2022-10-22T18:36:58.168Z,50.88
2022-10-22T18:39:24.693Z,51.42
2022-10-22T18:41:51.319Z,49.97
2022-10-22T18:44:17.948Z,51.00
2022-10-22T18:46:44.551Z,46.67
2022-10-22T18:49:16.484Z,44.75
2022-10-22T18:51:43.009Z,44.10
2022-10-22T18:54:22.743Z,43.22
2022-10-22T18:56:50.008Z,42.10
2022-10-22T18:59:25.192Z,43.20
2022-10-22T19:01:59.379Z,46.55
2022-10-22T19:04:45.081Z,43.88
2022-10-22T19:07:12.368Z,38.38
2022-10-22T19:09:40.085Z,44.50
2022-10-22T19:12:07.042Z,43.95
2022-10-22T19:14:33.630Z,41.05
2022-10-22T19:17:00.153Z,38.28
2022-10-22T19:19:26.997Z,42.80
2022-10-22T19:21:53.711Z,39.58
2022-10-22T19:24:20.839Z,36.70
2022-10-22T19:26:48.692Z,36.15
2022-10-22T19:29:20.273Z,40.05
2022-10-22T19:31:47.603Z,41.63
2022-10-22T19:34:14.307Z,40.72
2022-10-22T19:36:40.845Z,34.83
2022-10-22T19:39:07.720Z,36.80
2022-10-22T19:41:34.922Z,35.60
2022-10-22T19:44:02.041Z,35.00
2022-10-22T19:46:30.196Z,36.92
2022-10-22T19:48:57.368Z,32.47
2022-10-22T19:51:29.623Z,34.30
2022-10-22T19:54:05.349Z,35.10
2022-10-22T19:56:33.342Z,34.17
2022-10-22T19:59:00.324Z,28.38
2022-10-22T20:01:27.766Z,35.00
2022-10-22T20:03:54.628Z,30.85
2022-10-22T20:06:21.931Z,30.55
2022-10-22T20:08:51.029Z,30.45
2022-10-22T20:11:23.894Z,26.98
2022-10-22T20:13:52.328Z,30.00
2022-10-22T20:16:23.168Z,27.60
2022-10-22T20:18:50.747Z,33.47
2022-10-22T20:21:19.258Z,24.30
2022-10-22T20:23:46.388Z,27.30
2022-10-22T20:26:13.445Z,26.15
2022-10-22T20:28:39.998Z,24.00
2022-10-22T20:31:16.065Z,27.10
2022-10-22T20:33:42.888Z,28.27
2022-10-22T20:36:13.916Z,24.38
2022-10-22T20:38:40.414Z,26.67
2022-10-22T20:41:13.886Z,28.15
2022-10-22T20:43:43.004Z,23.75
2022-10-22T20:46:16.981Z,27.77
2022-10-22T20:48:43.494Z,28.52
2022-10-22T20:51:10.035Z,33.78
2022-10-22T20:53:36.576Z,36.28
2022-10-22T20:56:03.140Z,38.22
2022-10-22T20:58:30.737Z,39.38
2022-10-22T21:00:59.183Z,45.10
2022-10-22T21:03:25.806Z,34.00
2022-10-22T21:05:52.356Z,42.35
2022-10-22T21:08:18.868Z,44.70
2022-10-22T21:10:49.531Z,41.35
2022-10-22T21:13:17.110Z,39.42
2022-10-22T21:15:43.676Z,39.47
2022-10-22T21:18:10.352Z,43.10
2022-10-22T21:20:38.429Z,39.72
2022-10-22T21:23:04.852Z,42.40
2022-10-22T21:25:31.473Z,39.15
2022-10-22T21:27:58.090Z,39.53
2022-10-22T21:30:24.659Z,42.70
2022-10-22T21:32:51.754Z,41.83
2022-10-22T21:35:18.249Z,37.97
2022-10-22T21:37:44.901Z,38.20
2022-10-22T21:40:11.983Z,40.70
2022-10-22T21:42:38.555Z,40.97
2022-10-22T21:45:10.526Z,43.53
2022-10-22T21:47:40.203Z,39.03
2022-10-22T21:50:07.206Z,40.10
2022-10-22T21:52:33.689Z,39.78
2022-10-22T21:55:00.154Z,41.92
2022-10-22T21:57:26.729Z,40.38
2022-10-22T21:59:53.240Z,41.15
2022-10-22T22:04:54.745Z,36.10
2022-10-22T22:07:22.154Z,35.13
2022-10-22T22:09:51.961Z,37.90
2022-10-22T22:12:20.478Z,37.92
2022-10-22T22:14:47.318Z,38.65
2022-10-22T22:17:15.392Z,34.28
2022-10-22T22:19:42.441Z,36.38
2022-10-22T22:22:08.891Z,41.83
2022-10-22T22:24:35.549Z,33.88
2022-10-22T22:27:02.008Z,37.75
2022-10-22T22:29:28.484Z,37.58
2022-10-22T22:31:56.057Z,34.50
2022-10-22T22:34:22.578Z,35.90
2022-10-22T22:36:49.757Z,33.80
2022-10-22T22:39:19.938Z,29.52
2022-10-22T22:41:46.891Z,33.42
2022-10-22T22:44:13.809Z,33.63
2022-10-22T22:46:40.634Z,31.33
2022-10-22T22:49:07.735Z,35.15
2022-10-22T22:51:34.455Z,28.98
2022-10-22T22:54:01.969Z,29.60
2022-10-22T22:56:30.913Z,32.70
2022-10-22T22:58:58.002Z,30.02
2022-10-22T23:01:27.852Z,26.60
2022-10-22T23:03:55.768Z,28.02
2022-10-22T23:06:23.691Z,30.17
2022-10-22T23:08:51.973Z,29.02
2022-10-22T23:11:19.504Z,28.98
2022-10-22T23:13:46.346Z,26.60
2022-10-22T23:16:19.149Z,30.42
2022-10-22T23:18:47.484Z,26.75
2022-10-22T23:21:16.969Z,28.20
2022-10-22T23:23:49.293Z,26.33
2022-10-22T23:26:20.535Z,25.95
2022-10-22T23:28:47.084Z,22.83
2022-10-22T23:31:16.052Z,26.85
2022-10-22T23:33:42.962Z,25.38
2022-10-22T23:36:10.265Z,28.02
2022-10-22T23:38:38.110Z,28.95
2022-10-22T23:41:05.268Z,23.10
2022-10-22T23:43:32.575Z,25.15
2022-10-22T23:45:59.079Z,25.77
2022-10-22T23:48:25.680Z,24.17
2022-10-22T23:53:19.536Z,23.73
2022-10-22T23:55:46.036Z,21.02
2022-10-22T23:58:12.587Z,23.73
